sensor_id;sensor_type;location;lat;lon;timestamp;P1;durP1;ratioP1;P2;durP2;ratioP2
19446;SDS011;9862;49.462;11.054;2024-03-17T00:01:00;8.95;;;4.30;;
19446;SDS011;9862;49.462;11.054;2024-03-17T00:03:27;8.93;;;5.10;;
19446;SDS011;9862;49.462;11.054;2024-03-17T00:05:56;7.40;;;4.13;;
19446;SDS011;9862;49.462;11.054;2024-03-17T00:08:23;6.38;;;3.47;;
19446;SDS011;9862;49.462;11.054;2024-03-17T00:10:50;4.43;;;2.78;;
19446;SDS011;9862;49.462;11.054;2024-03-17T00:13:17;4.88;;;2.50;;
19446;SDS011;9862;49.462;11.054;2024-03-17T00:15:46;3.55;;;1.98;;
19446;SDS011;9862;49.462;11.054;2024-03-17T00:18:14;3.20;;;1.88;;
19446;SDS011;9862;49.462;11.054;2024-03-17T00:20:40;4.28;;;2.20;;
19446;SDS011;9862;49.462;11.054;2024-03-17T00:23:09;4.63;;;2.40;;
19446;SDS011;9862;49.462;11.054;2024-03-17T00:25:37;3.80;;;2.20;;
19446;SDS011;9862;49.462;11.054;2024-03-17T00:28:05;4.07;;;1.90;;
19446;SDS011;9862;49.462;11.054;2024-03-17T00:30:31;3.47;;;2.13;;
19446;SDS011;9862;49.462;11.054;2024-03-17T00:32:59;3.58;;;2.15;;
19446;SDS011;9862;49.462;11.054;2024-03-17T00:35:24;3.85;;;2.30;;
19446;SDS011;9862;49.462;11.054;2024-03-17T00:37:52;6.20;;;2.50;;
19446;SDS011;9862;49.462;11.054;2024-03-17T00:40:20;4.93;;;2.67;;
19446;SDS011;9862;49.462;11.054;2024-03-17T00:42:47;3.42;;;2.72;;
19446;SDS011;9862;49.462;11.054;2024-03-17T00:45:12;5.53;;;2.20;;
19446;SDS011;9862;49.462;11.054;2024-03-17T00:47:39;3.53;;;1.70;;
19446;SDS011;9862;49.462;11.054;2024-03-17T00:50:05;4.22;;;1.77;;
19446;SDS011;9862;49.462;11.054;2024-03-17T00:52:33;5.78;;;1.80;;
19446;SDS011;9862;49.462;11.054;2024-03-17T00:54:59;2.67;;;1.80;;
19446;SDS011;9862;49.462;11.054;2024-03-17T00:57:27;3.47;;;1.88;;
19446;SDS011;9862;49.462;11.054;2024-03-17T00:59:53;4.88;;;1.92;;
19446;SDS011;9862;49.462;11.054;2024-03-17T01:02:20;3.33;;;1.60;;
19446;SDS011;9862;49.462;11.054;2024-03-17T01:04:46;6.40;;;2.20;;
19446;SDS011;9862;49.462;11.054;2024-03-17T01:07:13;2.65;;;1.77;;
19446;SDS011;9862;49.462;11.054;2024-03-17T01:09:39;3.38;;;2.30;;
19446;SDS011;9862;49.462;11.054;2024-03-17T01:12:05;4.93;;;2.30;;
19446;SDS011;9862;49.462;11.054;2024-03-17T01:14:32;5.95;;;2.63;;
19446;SDS011;9862;49.462;11.054;2024-03-17T01:16:59;4.43;;;2.42;;
19446;SDS011;9862;49.462;11.054;2024-03-17T01:19:26;5.40;;;2.55;;
19446;SDS011;9862;49.462;11.054;2024-03-17T01:21:52;3.53;;;2.22;;
19446;SDS011;9862;49.462;11.054;2024-03-17T01:24:18;3.97;;;2.33;;
19446;SDS011;9862;49.462;11.054;2024-03-17T01:26:45;5.45;;;2.40;;
19446;SDS011;9862;49.462;11.054;2024-03-17T01:29:11;3.00;;;2.22;;
19446;SDS011;9862;49.462;11.054;2024-03-17T01:31:40;4.32;;;2.97;;
19446;SDS011;9862;49.462;11.054;2024-03-17T01:34:05;6.78;;;3.50;;
19446;SDS011;9862;49.462;11.054;2024-03-17T01:36:32;4.18;;;2.63;;
19446;SDS011;9862;49.462;11.054;2024-03-17T01:38:58;4.53;;;3.35;;
19446;SDS011;9862;49.462;11.054;2024-03-17T01:41:27;5.70;;;3.58;;
19446;SDS011;9862;49.462;11.054;2024-03-17T01:43:53;5.43;;;3.47;;
19446;SDS011;9862;49.462;11.054;2024-03-17T01:46:19;5.20;;;3.65;;
19446;SDS011;9862;49.462;11.054;2024-03-17T01:48:47;6.38;;;3.30;;
19446;SDS011;9862;49.462;11.054;2024-03-17T01:51:14;6.82;;;3.75;;
19446;SDS011;9862;49.462;11.054;2024-03-17T01:53:40;7.15;;;4.32;;
19446;SDS011;9862;49.462;11.054;2024-03-17T01:56:10;6.63;;;3.78;;
19446;SDS011;9862;49.462;11.054;2024-03-17T01:58:36;6.95;;;4.10;;
19446;SDS011;9862;49.462;11.054;2024-03-17T02:01:03;7.57;;;4.25;;
19446;SDS011;9862;49.462;11.054;2024-03-17T02:03:29;6.35;;;3.90;;
19446;SDS011;9862;49.462;11.054;2024-03-17T02:05:58;7.28;;;4.22;;
19446;SDS011;9862;49.462;11.054;2024-03-17T02:08:24;6.82;;;3.78;;
19446;SDS011;9862;49.462;11.054;2024-03-17T02:10:52;7.63;;;4.60;;
19446;SDS011;9862;49.462;11.054;2024-03-17T02:13:18;5.38;;;4.00;;
19446;SDS011;9862;49.462;11.054;2024-03-17T02:15:46;6.68;;;3.92;;
19446;SDS011;9862;49.462;11.054;2024-03-17T02:18:12;7.05;;;3.80;;
19446;SDS011;9862;49.462;11.054;2024-03-17T02:20:38;5.97;;;3.58;;
19446;SDS011;9862;49.462;11.054;2024-03-17T02:23:26;6.32;;;4.07;;
19446;SDS011;9862;49.462;11.054;2024-03-17T02:25:53;6.72;;;4.82;;
19446;SDS011;9862;49.462;11.054;2024-03-17T02:28:19;5.55;;;3.50;;
19446;SDS011;9862;49.462;11.054;2024-03-17T02:30:46;5.10;;;3.72;;
19446;SDS011;9862;49.462;11.054;2024-03-17T02:33:11;7.00;;;3.47;;
19446;SDS011;9862;49.462;11.054;2024-03-17T02:35:38;6.85;;;3.92;;
19446;SDS011;9862;49.462;11.054;2024-03-17T02:38:04;6.43;;;4.28;;
19446;SDS011;9862;49.462;11.054;2024-03-17T02:40:34;7.75;;;4.32;;
19446;SDS011;9862;49.462;11.054;2024-03-17T02:42:59;8.60;;;4.25;;
19446;SDS011;9862;49.462;11.054;2024-03-17T02:45:26;6.25;;;4.32;;
19446;SDS011;9862;49.462;11.054;2024-03-17T02:47:53;7.38;;;4.18;;
19446;SDS011;9862;49.462;11.054;2024-03-17T02:50:20;7.38;;;3.83;;
19446;SDS011;9862;49.462;11.054;2024-03-17T02:52:46;6.88;;;4.05;;
19446;SDS011;9862;49.462;11.054;2024-03-17T02:55:13;6.32;;;4.22;;
19446;SDS011;9862;49.462;11.054;2024-03-17T02:57:43;5.88;;;3.80;;
19446;SDS011;9862;49.462;11.054;2024-03-17T03:00:11;6.85;;;4.00;;
19446;SDS011;9862;49.462;11.054;2024-03-17T03:02:38;6.50;;;4.63;;
19446;SDS011;9862;49.462;11.054;2024-03-17T03:05:05;5.60;;;3.83;;
19446;SDS011;9862;49.462;11.054;2024-03-17T03:07:32;7.13;;;4.28;;
19446;SDS011;9862;49.462;11.054;2024-03-17T03:09:59;6.65;;;3.65;;
19446;SDS011;9862;49.462;11.054;2024-03-17T03:12:30;7.03;;;4.45;;
19446;SDS011;9862;49.462;11.054;2024-03-17T03:14:59;7.78;;;4.72;;
19446;SDS011;9862;49.462;11.054;2024-03-17T03:17:27;5.45;;;3.65;;
19446;SDS011;9862;49.462;11.054;2024-03-17T03:19:57;5.70;;;4.22;;
19446;SDS011;9862;49.462;11.054;2024-03-17T03:22:26;8.27;;;4.20;;
19446;SDS011;9862;49.462;11.054;2024-03-17T03:24:53;4.97;;;3.65;;
19446;SDS011;9862;49.462;11.054;2024-03-17T03:27:21;5.03;;;3.40;;
19446;SDS011;9862;49.462;11.054;2024-03-17T03:29:49;4.90;;;3.50;;
19446;SDS011;9862;49.462;11.054;2024-03-17T03:32:18;7.80;;;4.53;;
19446;SDS011;9862;49.462;11.054;2024-03-17T03:34:46;6.97;;;4.38;;
19446;SDS011;9862;49.462;11.054;2024-03-17T03:37:14;6.55;;;4.38;;
19446;SDS011;9862;49.462;11.054;2024-03-17T03:39:41;7.82;;;4.80;;
19446;SDS011;9862;49.462;11.054;2024-03-17T03:42:08;9.15;;;4.78;;
19446;SDS011;9862;49.462;11.054;2024-03-17T03:44:35;7.07;;;4.82;;
19446;SDS011;9862;49.462;11.054;2024-03-17T03:47:03;7.45;;;5.00;;
19446;SDS011;9862;49.462;11.054;2024-03-17T03:49:32;9.13;;;4.60;;
19446;SDS011;9862;49.462;11.054;2024-03-17T03:51:59;7.53;;;4.45;;
19446;SDS011;9862;49.462;11.054;2024-03-17T03:54:26;7.00;;;4.40;;
19446;SDS011;9862;49.462;11.054;2024-03-17T03:56:52;8.55;;;5.47;;
19446;SDS011;9862;49.462;11.054;2024-03-17T03:59:19;10.50;;;4.88;;
19446;SDS011;9862;49.462;11.054;2024-03-17T04:01:46;6.07;;;4.07;;
19446;SDS011;9862;49.462;11.054;2024-03-17T04:04:14;8.60;;;4.22;;
19446;SDS011;9862;49.462;11.054;2024-03-17T04:06:42;6.68;;;4.40;;
19446;SDS011;9862;49.462;11.054;2024-03-17T04:09:09;8.20;;;4.43;;
19446;SDS011;9862;49.462;11.054;2024-03-17T04:11:36;7.50;;;4.82;;
19446;SDS011;9862;49.462;11.054;2024-03-17T04:14:03;9.07;;;4.82;;
19446;SDS011;9862;49.462;11.054;2024-03-17T04:16:30;7.00;;;4.28;;
19446;SDS011;9862;49.462;11.054;2024-03-17T04:18:56;8.52;;;4.80;;
19446;SDS011;9862;49.462;11.054;2024-03-17T04:21:23;7.30;;;4.65;;
19446;SDS011;9862;49.462;11.054;2024-03-17T04:23:51;7.68;;;4.47;;
19446;SDS011;9862;49.462;11.054;2024-03-17T04:26:18;7.15;;;4.47;;
19446;SDS011;9862;49.462;11.054;2024-03-17T04:28:44;9.60;;;5.03;;
19446;SDS011;9862;49.462;11.054;2024-03-17T04:31:11;8.65;;;4.85;;
19446;SDS011;9862;49.462;11.054;2024-03-17T04:33:38;7.05;;;4.97;;
19446;SDS011;9862;49.462;11.054;2024-03-17T04:36:05;8.13;;;4.20;;
19446;SDS011;9862;49.462;11.054;2024-03-17T04:38:33;6.82;;;4.40;;
19446;SDS011;9862;49.462;11.054;2024-03-17T04:41:02;5.75;;;4.20;;
19446;SDS011;9862;49.462;11.054;2024-03-17T04:43:33;6.13;;;4.40;;
19446;SDS011;9862;49.462;11.054;2024-03-17T04:46:00;6.05;;;4.45;;
19446;SDS011;9862;49.462;11.054;2024-03-17T04:48:29;8.13;;;4.35;;
19446;SDS011;9862;49.462;11.054;2024-03-17T04:50:55;7.97;;;4.00;;
19446;SDS011;9862;49.462;11.054;2024-03-17T04:53:22;7.28;;;4.40;;
19446;SDS011;9862;49.462;11.054;2024-03-17T04:55:57;7.82;;;4.32;;
19446;SDS011;9862;49.462;11.054;2024-03-17T04:58:26;4.88;;;4.00;;
19446;SDS011;9862;49.462;11.054;2024-03-17T05:00:53;5.85;;;3.67;;
19446;SDS011;9862;49.462;11.054;2024-03-17T05:03:19;6.03;;;4.00;;
19446;SDS011;9862;49.462;11.054;2024-03-17T05:05:46;6.80;;;4.72;;
19446;SDS011;9862;49.462;11.054;2024-03-17T05:08:13;8.57;;;3.97;;
19446;SDS011;9862;49.462;11.054;2024-03-17T05:10:39;5.93;;;4.05;;
19446;SDS011;9862;49.462;11.054;2024-03-17T05:13:06;7.10;;;4.57;;
19446;SDS011;9862;49.462;11.054;2024-03-17T05:15:34;7.18;;;4.45;;
19446;SDS011;9862;49.462;11.054;2024-03-17T05:18:02;6.72;;;4.22;;
19446;SDS011;9862;49.462;11.054;2024-03-17T05:20:29;5.43;;;3.85;;
19446;SDS011;9862;49.462;11.054;2024-03-17T05:22:56;6.90;;;4.35;;
19446;SDS011;9862;49.462;11.054;2024-03-17T05:25:23;6.03;;;4.03;;
19446;SDS011;9862;49.462;11.054;2024-03-17T05:27:49;6.10;;;4.45;;
19446;SDS011;9862;49.462;11.054;2024-03-17T05:30:16;6.90;;;4.38;;
19446;SDS011;9862;49.462;11.054;2024-03-17T05:32:45;6.97;;;4.40;;
19446;SDS011;9862;49.462;11.054;2024-03-17T05:35:11;5.97;;;4.53;;
19446;SDS011;9862;49.462;11.054;2024-03-17T05:37:38;11.45;;;7.03;;
19446;SDS011;9862;49.462;11.054;2024-03-17T05:40:06;20.35;;;12.35;;
19446;SDS011;9862;49.462;11.054;2024-03-17T05:42:37;23.65;;;12.68;;
19446;SDS011;9862;49.462;11.054;2024-03-17T05:45:04;12.77;;;7.22;;
19446;SDS011;9862;49.462;11.054;2024-03-17T05:47:35;10.73;;;5.97;;
19446;SDS011;9862;49.462;11.054;2024-03-17T05:50:04;10.23;;;6.72;;
19446;SDS011;9862;49.462;11.054;2024-03-17T05:52:30;14.23;;;7.93;;
19446;SDS011;9862;49.462;11.054;2024-03-17T05:54:57;15.70;;;9.80;;
19446;SDS011;9862;49.462;11.054;2024-03-17T05:57:24;18.50;;;10.38;;
19446;SDS011;9862;49.462;11.054;2024-03-17T05:59:51;21.40;;;12.55;;
19446;SDS011;9862;49.462;11.054;2024-03-17T06:02:17;17.88;;;10.27;;
19446;SDS011;9862;49.462;11.054;2024-03-17T06:04:45;12.85;;;7.10;;
19446;SDS011;9862;49.462;11.054;2024-03-17T06:07:13;16.77;;;10.00;;
19446;SDS011;9862;49.462;11.054;2024-03-17T06:09:39;9.70;;;6.50;;
19446;SDS011;9862;49.462;11.054;2024-03-17T06:12:06;8.40;;;5.07;;
19446;SDS011;9862;49.462;11.054;2024-03-17T06:14:33;7.78;;;5.05;;
19446;SDS011;9862;49.462;11.054;2024-03-17T06:17:00;9.77;;;6.43;;
19446;SDS011;9862;49.462;11.054;2024-03-17T06:19:27;14.52;;;9.38;;
19446;SDS011;9862;49.462;11.054;2024-03-17T06:21:54;14.50;;;8.80;;
19446;SDS011;9862;49.462;11.054;2024-03-17T06:24:22;10.15;;;6.82;;
19446;SDS011;9862;49.462;11.054;2024-03-17T06:26:50;14.27;;;9.63;;
19446;SDS011;9862;49.462;11.054;2024-03-17T06:29:16;14.50;;;7.55;;
19446;SDS011;9862;49.462;11.054;2024-03-17T06:31:45;8.63;;;5.85;;
19446;SDS011;9862;49.462;11.054;2024-03-17T06:34:12;7.80;;;5.53;;
19446;SDS011;9862;49.462;11.054;2024-03-17T06:36:40;13.85;;;8.05;;
19446;SDS011;9862;49.462;11.054;2024-03-17T06:39:08;22.02;;;12.18;;
19446;SDS011;9862;49.462;11.054;2024-03-17T06:41:36;21.80;;;12.60;;
19446;SDS011;9862;49.462;11.054;2024-03-17T06:44:03;17.20;;;10.52;;
19446;SDS011;9862;49.462;11.054;2024-03-17T06:46:31;12.07;;;7.47;;
19446;SDS011;9862;49.462;11.054;2024-03-17T06:48:58;9.23;;;6.88;;
19446;SDS011;9862;49.462;11.054;2024-03-17T06:51:25;8.80;;;5.45;;
19446;SDS011;9862;49.462;11.054;2024-03-17T06:53:51;10.30;;;6.05;;
19446;SDS011;9862;49.462;11.054;2024-03-17T06:56:18;12.95;;;6.45;;
19446;SDS011;9862;49.462;11.054;2024-03-17T06:58:46;8.32;;;5.47;;
19446;SDS011;9862;49.462;11.054;2024-03-17T07:01:13;6.15;;;4.60;;
19446;SDS011;9862;49.462;11.054;2024-03-17T07:03:39;7.78;;;4.95;;
19446;SDS011;9862;49.462;11.054;2024-03-17T07:06:06;8.05;;;5.25;;
19446;SDS011;9862;49.462;11.054;2024-03-17T07:08:33;7.03;;;4.35;;
19446;SDS011;9862;49.462;11.054;2024-03-17T07:11:00;6.78;;;4.60;;
19446;SDS011;9862;49.462;11.054;2024-03-17T07:13:28;6.50;;;4.50;;
19446;SDS011;9862;49.462;11.054;2024-03-17T07:15:57;7.82;;;5.18;;
19446;SDS011;9862;49.462;11.054;2024-03-17T07:18:24;7.00;;;4.72;;
19446;SDS011;9862;49.462;11.054;2024-03-17T07:20:52;8.27;;;4.50;;
19446;SDS011;9862;49.462;11.054;2024-03-17T07:23:19;7.57;;;4.95;;
19446;SDS011;9862;49.462;11.054;2024-03-17T07:25:51;6.85;;;5.00;;
19446;SDS011;9862;49.462;11.054;2024-03-17T07:28:19;8.80;;;5.40;;
19446;SDS011;9862;49.462;11.054;2024-03-17T07:30:47;9.13;;;5.60;;
19446;SDS011;9862;49.462;11.054;2024-03-17T07:33:15;7.85;;;5.45;;
19446;SDS011;9862;49.462;11.054;2024-03-17T07:35:49;8.15;;;5.43;;
19446;SDS011;9862;49.462;11.054;2024-03-17T07:38:16;8.25;;;5.35;;
19446;SDS011;9862;49.462;11.054;2024-03-17T07:40:43;10.07;;;5.53;;
19446;SDS011;9862;49.462;11.054;2024-03-17T07:43:10;7.57;;;5.53;;
19446;SDS011;9862;49.462;11.054;2024-03-17T07:45:37;8.35;;;5.40;;
19446;SDS011;9862;49.462;11.054;2024-03-17T07:48:04;10.18;;;5.30;;
19446;SDS011;9862;49.462;11.054;2024-03-17T07:50:33;7.68;;;4.97;;
19446;SDS011;9862;49.462;11.054;2024-03-17T07:53:00;7.20;;;5.07;;
19446;SDS011;9862;49.462;11.054;2024-03-17T07:55:27;9.50;;;5.65;;
19446;SDS011;9862;49.462;11.054;2024-03-17T07:57:55;8.10;;;5.45;;
19446;SDS011;9862;49.462;11.054;2024-03-17T08:00:22;7.13;;;5.28;;
19446;SDS011;9862;49.462;11.054;2024-03-17T08:02:49;7.90;;;5.22;;
19446;SDS011;9862;49.462;11.054;2024-03-17T08:05:15;8.07;;;5.18;;
19446;SDS011;9862;49.462;11.054;2024-03-17T08:07:44;8.15;;;5.03;;
19446;SDS011;9862;49.462;11.054;2024-03-17T08:10:10;8.35;;;5.50;;
19446;SDS011;9862;49.462;11.054;2024-03-17T08:12:37;7.80;;;5.03;;
19446;SDS011;9862;49.462;11.054;2024-03-17T08:15:04;15.43;;;9.38;;
19446;SDS011;9862;49.462;11.054;2024-03-17T08:17:31;18.10;;;10.95;;
19446;SDS011;9862;49.462;11.054;2024-03-17T08:19:58;10.38;;;6.43;;
19446;SDS011;9862;49.462;11.054;2024-03-17T08:22:24;7.35;;;5.05;;
19446;SDS011;9862;49.462;11.054;2024-03-17T08:24:52;7.95;;;5.43;;
19446;SDS011;9862;49.462;11.054;2024-03-17T08:27:19;46.30;;;22.42;;
19446;SDS011;9862;49.462;11.054;2024-03-17T08:29:46;59.63;;;32.22;;
19446;SDS011;9862;49.462;11.054;2024-03-17T08:32:12;66.10;;;35.08;;
19446;SDS011;9862;49.462;11.054;2024-03-17T08:34:39;25.25;;;14.45;;
19446;SDS011;9862;49.462;11.054;2024-03-17T08:37:06;13.57;;;7.45;;
19446;SDS011;9862;49.462;11.054;2024-03-17T08:39:34;10.93;;;6.63;;
19446;SDS011;9862;49.462;11.054;2024-03-17T08:42:02;9.88;;;5.47;;
19446;SDS011;9862;49.462;11.054;2024-03-17T08:44:29;9.48;;;5.05;;
19446;SDS011;9862;49.462;11.054;2024-03-17T08:46:55;6.45;;;4.70;;
19446;SDS011;9862;49.462;11.054;2024-03-17T08:49:23;7.38;;;4.72;;
19446;SDS011;9862;49.462;11.054;2024-03-17T08:51:51;10.35;;;5.03;;
19446;SDS011;9862;49.462;11.054;2024-03-17T08:54:18;7.15;;;5.32;;
19446;SDS011;9862;49.462;11.054;2024-03-17T08:56:44;6.70;;;4.82;;
19446;SDS011;9862;49.462;11.054;2024-03-17T08:59:13;7.88;;;4.82;;
19446;SDS011;9862;49.462;11.054;2024-03-17T09:01:40;7.88;;;5.05;;
19446;SDS011;9862;49.462;11.054;2024-03-17T09:04:06;8.20;;;5.15;;
19446;SDS011;9862;49.462;11.054;2024-03-17T09:06:36;9.25;;;5.40;;
19446;SDS011;9862;49.462;11.054;2024-03-17T09:09:03;7.75;;;5.03;;
19446;SDS011;9862;49.462;11.054;2024-03-17T09:11:31;7.15;;;4.90;;
19446;SDS011;9862;49.462;11.054;2024-03-17T09:13:57;10.95;;;5.18;;
19446;SDS011;9862;49.462;11.054;2024-03-17T09:16:27;9.68;;;4.85;;
19446;SDS011;9862;49.462;11.054;2024-03-17T09:18:55;7.20;;;4.97;;
19446;SDS011;9862;49.462;11.054;2024-03-17T09:21:22;6.63;;;3.97;;
19446;SDS011;9862;49.462;11.054;2024-03-17T09:23:49;4.93;;;3.83;;
19446;SDS011;9862;49.462;11.054;2024-03-17T09:26:16;5.53;;;3.67;;
19446;SDS011;9862;49.462;11.054;2024-03-17T09:28:43;6.65;;;3.85;;
19446;SDS011;9862;49.462;11.054;2024-03-17T09:31:10;4.45;;;2.70;;
19446;SDS011;9862;49.462;11.054;2024-03-17T09:33:39;4.80;;;3.65;;
19446;SDS011;9862;49.462;11.054;2024-03-17T09:36:06;4.50;;;3.15;;
19446;SDS011;9862;49.462;11.054;2024-03-17T09:38:36;5.38;;;2.60;;
19446;SDS011;9862;49.462;11.054;2024-03-17T09:41:03;3.95;;;2.80;;
19446;SDS011;9862;49.462;11.054;2024-03-17T09:43:31;3.30;;;2.40;;
19446;SDS011;9862;49.462;11.054;2024-03-17T09:46:01;17.20;;;8.40;;
19446;SDS011;9862;49.462;11.054;2024-03-17T09:48:28;13.32;;;7.25;;
19446;SDS011;9862;49.462;11.054;2024-03-17T09:50:57;3.33;;;2.60;;
19446;SDS011;9862;49.462;11.054;2024-03-17T09:53:26;6.28;;;4.13;;
19446;SDS011;9862;49.462;11.054;2024-03-17T09:55:56;4.10;;;2.97;;
19446;SDS011;9862;49.462;11.054;2024-03-17T09:58:24;9.15;;;5.05;;
19446;SDS011;9862;49.462;11.054;2024-03-17T10:00:51;5.30;;;3.40;;
19446;SDS011;9862;49.462;11.054;2024-03-17T10:06:08;4.68;;;3.30;;
19446;SDS011;9862;49.462;11.054;2024-03-17T10:08:40;6.45;;;3.58;;
19446;SDS011;9862;49.462;11.054;2024-03-17T10:11:07;6.50;;;3.92;;
19446;SDS011;9862;49.462;11.054;2024-03-17T10:13:35;5.15;;;3.20;;
19446;SDS011;9862;49.462;11.054;2024-03-17T10:16:01;6.82;;;3.45;;
19446;SDS011;9862;49.462;11.054;2024-03-17T10:18:29;5.88;;;3.47;;
19446;SDS011;9862;49.462;11.054;2024-03-17T10:20:56;6.80;;;3.47;;
19446;SDS011;9862;49.462;11.054;2024-03-17T10:23:25;5.07;;;3.67;;
19446;SDS011;9862;49.462;11.054;2024-03-17T10:25:53;6.15;;;3.80;;
19446;SDS011;9862;49.462;11.054;2024-03-17T10:28:20;7.95;;;4.10;;
19446;SDS011;9862;49.462;11.054;2024-03-17T10:30:56;6.13;;;3.83;;
19446;SDS011;9862;49.462;11.054;2024-03-17T10:33:24;6.43;;;4.18;;
19446;SDS011;9862;49.462;11.054;2024-03-17T10:35:58;5.78;;;3.58;;
19446;SDS011;9862;49.462;11.054;2024-03-17T10:38:26;5.85;;;3.95;;
19446;SDS011;9862;49.462;11.054;2024-03-17T10:40:53;5.95;;;4.28;;
19446;SDS011;9862;49.462;11.054;2024-03-17T10:43:20;7.45;;;4.47;;
19446;SDS011;9862;49.462;11.054;2024-03-17T10:45:51;6.80;;;4.28;;
19446;SDS011;9862;49.462;11.054;2024-03-17T10:48:19;6.32;;;3.75;;
19446;SDS011;9862;49.462;11.054;2024-03-17T10:50:47;6.22;;;3.72;;
19446;SDS011;9862;49.462;11.054;2024-03-17T10:53:15;6.22;;;4.20;;
19446;SDS011;9862;49.462;11.054;2024-03-17T10:55:53;5.43;;;3.40;;
19446;SDS011;9862;49.462;11.054;2024-03-17T10:58:33;8.30;;;4.28;;
19446;SDS011;9862;49.462;11.054;2024-03-17T11:01:01;5.35;;;3.78;;
19446;SDS011;9862;49.462;11.054;2024-03-17T11:03:30;8.20;;;4.25;;
19446;SDS011;9862;49.462;11.054;2024-03-17T11:05:58;6.43;;;3.95;;
19446;SDS011;9862;49.462;11.054;2024-03-17T11:08:26;6.65;;;4.35;;
19446;SDS011;9862;49.462;11.054;2024-03-17T11:10:54;6.43;;;4.47;;
19446;SDS011;9862;49.462;11.054;2024-03-17T11:13:24;7.63;;;4.10;;
19446;SDS011;9862;49.462;11.054;2024-03-17T11:15:52;8.38;;;4.57;;
19446;SDS011;9862;49.462;11.054;2024-03-17T11:18:36;7.60;;;4.60;;
19446;SDS011;9862;49.462;11.054;2024-03-17T11:21:05;9.55;;;5.05;;
19446;SDS011;9862;49.462;11.054;2024-03-17T11:23:35;16.48;;;5.90;;
19446;SDS011;9862;49.462;11.054;2024-03-17T11:26:05;7.10;;;4.30;;
19446;SDS011;9862;49.462;11.054;2024-03-17T11:28:45;7.50;;;4.60;;
19446;SDS011;9862;49.462;11.054;2024-03-17T11:37:09;6.78;;;4.22;;
19446;SDS011;9862;49.462;11.054;2024-03-17T11:40:22;6.97;;;4.45;;
19446;SDS011;9862;49.462;11.054;2024-03-17T11:43:00;8.70;;;4.95;;
19446;SDS011;9862;49.462;11.054;2024-03-17T11:45:26;10.88;;;5.18;;
19446;SDS011;9862;49.462;11.054;2024-03-17T11:47:52;7.57;;;5.28;;
19446;SDS011;9862;49.462;11.054;2024-03-17T11:50:18;8.65;;;5.07;;
19446;SDS011;9862;49.462;11.054;2024-03-17T11:52:47;7.60;;;4.82;;
19446;SDS011;9862;49.462;11.054;2024-03-17T11:55:23;7.57;;;4.97;;
19446;SDS011;9862;49.462;11.054;2024-03-17T11:57:55;9.57;;;6.25;;
19446;SDS011;9862;49.462;11.054;2024-03-17T12:00:21;8.80;;;5.40;;
19446;SDS011;9862;49.462;11.054;2024-03-17T12:02:49;8.52;;;5.45;;
19446;SDS011;9862;49.462;11.054;2024-03-17T12:05:15;7.90;;;5.25;;
19446;SDS011;9862;49.462;11.054;2024-03-17T12:07:43;7.00;;;4.72;;
19446;SDS011;9862;49.462;11.054;2024-03-17T12:10:11;9.20;;;4.70;;
19446;SDS011;9862;49.462;11.054;2024-03-17T12:12:38;9.88;;;5.55;;
19446;SDS011;9862;49.462;11.054;2024-03-17T12:15:11;8.38;;;5.10;;
19446;SDS011;9862;49.462;11.054;2024-03-17T12:17:42;6.95;;;4.38;;
19446;SDS011;9862;49.462;11.054;2024-03-17T12:20:13;7.05;;;4.68;;
19446;SDS011;9862;49.462;11.054;2024-03-17T12:22:44;7.50;;;4.88;;
19446;SDS011;9862;49.462;11.054;2024-03-17T12:25:16;8.38;;;5.20;;
19446;SDS011;9862;49.462;11.054;2024-03-17T12:27:44;8.68;;;5.35;;
19446;SDS011;9862;49.462;11.054;2024-03-17T12:30:13;9.55;;;5.13;;
19446;SDS011;9862;49.462;11.054;2024-03-17T12:32:40;7.97;;;4.65;;
19446;SDS011;9862;49.462;11.054;2024-03-17T12:35:11;8.90;;;4.90;;
19446;SDS011;9862;49.462;11.054;2024-03-17T12:37:38;7.57;;;4.63;;
19446;SDS011;9862;49.462;11.054;2024-03-17T12:40:06;7.93;;;5.13;;
19446;SDS011;9862;49.462;11.054;2024-03-17T12:42:47;7.25;;;4.78;;
19446;SDS011;9862;49.462;11.054;2024-03-17T12:45:18;7.85;;;4.68;;
19446;SDS011;9862;49.462;11.054;2024-03-17T12:47:46;8.88;;;4.40;;
19446;SDS011;9862;49.462;11.054;2024-03-17T12:50:13;8.20;;;4.22;;
19446;SDS011;9862;49.462;11.054;2024-03-17T12:52:40;7.38;;;4.38;;
19446;SDS011;9862;49.462;11.054;2024-03-17T12:55:06;9.48;;;5.10;;
19446;SDS011;9862;49.462;11.054;2024-03-17T12:57:52;8.88;;;5.28;;
19446;SDS011;9862;49.462;11.054;2024-03-17T13:00:55;7.53;;;4.50;;
19446;SDS011;9862;49.462;11.054;2024-03-17T13:03:24;48.78;;;27.15;;
19446;SDS011;9862;49.462;11.054;2024-03-17T13:05:51;23.20;;;11.77;;
19446;SDS011;9862;49.462;11.054;2024-03-17T13:08:18;7.72;;;4.43;;
19446;SDS011;9862;49.462;11.054;2024-03-17T13:10:46;10.75;;;5.35;;
19446;SDS011;9862;49.462;11.054;2024-03-17T13:13:14;13.48;;;8.45;;
19446;SDS011;9862;49.462;11.054;2024-03-17T13:15:42;13.80;;;6.95;;
19446;SDS011;9862;49.462;11.054;2024-03-17T13:18:11;9.07;;;4.47;;
19446;SDS011;9862;49.462;11.054;2024-03-17T13:20:43;7.18;;;4.10;;
19446;SDS011;9862;49.462;11.054;2024-03-17T13:23:10;9.82;;;4.30;;
19446;SDS011;9862;49.462;11.054;2024-03-17T13:25:37;8.07;;;4.28;;
19446;SDS011;9862;49.462;11.054;2024-03-17T13:28:04;5.28;;;4.15;;
19446;SDS011;9862;49.462;11.054;2024-03-17T13:30:33;5.95;;;4.22;;
19446;SDS011;9862;49.462;11.054;2024-03-17T13:33:01;6.93;;;4.97;;
19446;SDS011;9862;49.462;11.054;2024-03-17T13:35:33;9.55;;;4.22;;
19446;SDS011;9862;49.462;11.054;2024-03-17T13:38:04;6.78;;;4.10;;
19446;SDS011;9862;49.462;11.054;2024-03-17T13:40:32;7.55;;;4.20;;
19446;SDS011;9862;49.462;11.054;2024-03-17T13:43:00;6.38;;;4.60;;
19446;SDS011;9862;49.462;11.054;2024-03-17T13:45:27;6.47;;;4.63;;
19446;SDS011;9862;49.462;11.054;2024-03-17T13:47:59;8.13;;;5.68;;
19446;SDS011;9862;49.462;11.054;2024-03-17T13:50:27;8.63;;;4.32;;
19446;SDS011;9862;49.462;11.054;2024-03-17T13:52:55;7.78;;;4.90;;
19446;SDS011;9862;49.462;11.054;2024-03-17T13:55:23;9.75;;;4.88;;
19446;SDS011;9862;49.462;11.054;2024-03-17T13:57:51;7.90;;;4.78;;
19446;SDS011;9862;49.462;11.054;2024-03-17T14:00:19;8.73;;;5.40;;
19446;SDS011;9862;49.462;11.054;2024-03-17T14:02:47;6.60;;;4.95;;
19446;SDS011;9862;49.462;11.054;2024-03-17T14:05:16;7.97;;;4.65;;
19446;SDS011;9862;49.462;11.054;2024-03-17T14:07:46;9.65;;;5.00;;
19446;SDS011;9862;49.462;11.054;2024-03-17T14:10:14;35.20;;;20.35;;
19446;SDS011;9862;49.462;11.054;2024-03-17T14:12:42;9.35;;;5.18;;
19446;SDS011;9862;49.462;11.054;2024-03-17T14:15:10;25.45;;;14.88;;
19446;SDS011;9862;49.462;11.054;2024-03-17T14:17:37;6.00;;;4.38;;
19446;SDS011;9862;49.462;11.054;2024-03-17T14:20:04;7.15;;;4.97;;
19446;SDS011;9862;49.462;11.054;2024-03-17T14:22:35;7.00;;;4.57;;
19446;SDS011;9862;49.462;11.054;2024-03-17T14:25:03;6.45;;;4.35;;
19446;SDS011;9862;49.462;11.054;2024-03-17T14:27:30;6.57;;;4.40;;
19446;SDS011;9862;49.462;11.054;2024-03-17T14:29:57;5.15;;;3.95;;
19446;SDS011;9862;49.462;11.054;2024-03-17T14:32:24;8.45;;;3.47;;
19446;SDS011;9862;49.462;11.054;2024-03-17T14:34:51;6.15;;;4.03;;
19446;SDS011;9862;49.462;11.054;2024-03-17T14:37:17;6.25;;;3.75;;
19446;SDS011;9862;49.462;11.054;2024-03-17T14:39:46;7.15;;;3.78;;
19446;SDS011;9862;49.462;11.054;2024-03-17T14:42:12;8.82;;;5.18;;
19446;SDS011;9862;49.462;11.054;2024-03-17T14:44:40;8.35;;;5.28;;
19446;SDS011;9862;49.462;11.054;2024-03-17T14:47:06;10.88;;;5.45;;
19446;SDS011;9862;49.462;11.054;2024-03-17T14:49:33;9.07;;;5.13;;
19446;SDS011;9862;49.462;11.054;2024-03-17T14:52:00;9.60;;;4.85;;
19446;SDS011;9862;49.462;11.054;2024-03-17T14:54:27;9.20;;;5.60;;
19446;SDS011;9862;49.462;11.054;2024-03-17T14:56:55;8.65;;;5.65;;
19446;SDS011;9862;49.462;11.054;2024-03-17T14:59:22;7.80;;;4.85;;